sensor_id;sensor_type;location;lat;lon;timestamp;pressure;altitude;pressure_sealevel;temperature;humidity
21520;BME280;10921;53.614;9.882;2023-07-31T00:01:12;100572.16;;;16.37;100.00
21520;BME280;10921;53.614;9.882;2023-07-31T00:03:39;100597.97;;;16.46;100.00
21520;BME280;10921;53.614;9.882;2023-07-31T00:06:05;100585.91;;;16.42;100.00
21520;BME280;10921;53.614;9.882;2023-07-31T00:08:32;100607.59;;;16.63;99.78
21520;BME280;10921;53.614;9.882;2023-07-31T00:10:58;100610.91;;;16.65;99.92
21520;BME280;10921;53.614;9.882;2023-07-31T00:13:25;100580.03;;;16.53;99.82
21520;BME280;10921;53.614;9.882;2023-07-31T00:15:51;100610.53;;;16.68;99.86
21520;BME280;10921;53.614;9.882;2023-07-31T00:18:18;100553.47;;;16.35;99.43
21520;BME280;10921;53.614;9.882;2023-07-31T00:20:44;100597.06;;;16.68;99.02
21520;BME280;10921;53.614;9.882;2023-07-31T00:23:11;100584.03;;;16.57;98.67
21520;BME280;10921;53.614;9.882;2023-07-31T00:25:37;100544.38;;;16.36;98.53
21520;BME280;10921;53.614;9.882;2023-07-31T00:28:04;100556.38;;;16.48;98.33
21520;BME280;10921;53.614;9.882;2023-07-31T00:30:31;100560.47;;;16.44;97.84
21520;BME280;10921;53.614;9.882;2023-07-31T00:32:58;100582.50;;;16.63;97.49
21520;BME280;10921;53.614;9.882;2023-07-31T00:35:24;100528.63;;;16.33;97.18
21520;BME280;10921;53.614;9.882;2023-07-31T00:37:51;100572.56;;;16.63;96.97
21520;BME280;10921;53.614;9.882;2023-07-31T00:40:17;100561.56;;;16.50;96.58
21520;BME280;10921;53.614;9.882;2023-07-31T00:42:44;100556.38;;;16.48;96.10
21520;BME280;10921;53.614;9.882;2023-07-31T00:45:11;100582.50;;;16.63;95.90
21520;BME280;10921;53.614;9.882;2023-07-31T00:47:37;100580.72;;;16.70;95.85
21520;BME280;10921;53.614;9.882;2023-07-31T00:50:04;100560.16;;;16.54;95.37
21520;BME280;10921;53.614;9.882;2023-07-31T00:52:32;100571.22;;;16.59;95.05
21520;BME280;10921;53.614;9.882;2023-07-31T00:54:58;100582.31;;;16.64;94.74
21520;BME280;10921;53.614;9.882;2023-07-31T00:57:25;100512.56;;;16.25;94.67
21520;BME280;10921;53.614;9.882;2023-07-31T00:59:52;100570.56;;;16.57;94.56
21520;BME280;10921;53.614;9.882;2023-07-31T01:02:18;100568.91;;;16.56;94.73
21520;BME280;10921;53.614;9.882;2023-07-31T01:04:45;100539.66;;;16.38;94.51
21520;BME280;10921;53.614;9.882;2023-07-31T01:07:32;100573.06;;;16.59;95.56
21520;BME280;10921;53.614;9.882;2023-07-31T01:10:06;100565.72;;;16.52;94.43
21520;BME280;10921;53.614;9.882;2023-07-31T01:12:34;100551.38;;;16.45;94.46
21520;BME280;10921;53.614;9.882;2023-07-31T01:15:05;100565.09;;;16.50;95.38
21520;BME280;10921;53.614;9.882;2023-07-31T01:17:32;100526.94;;;16.32;95.01
21520;BME280;10921;53.614;9.882;2023-07-31T01:20:02;100551.72;;;16.42;95.19
21520;BME280;10921;53.614;9.882;2023-07-31T01:28:05;100562.19;;;16.52;95.04
21520;BME280;10921;53.614;9.882;2023-07-31T01:30:37;100492.31;;;16.14;95.11
21520;BME280;10921;53.614;9.882;2023-07-31T01:33:07;100460.88;;;16.00;94.94
21520;BME280;10921;53.614;9.882;2023-07-31T01:35:36;100548.09;;;16.50;94.98
21520;BME280;10921;53.614;9.882;2023-07-31T01:38:03;100539.81;;;16.51;94.86
21520;BME280;10921;53.614;9.882;2023-07-31T01:40:30;100530.06;;;16.50;94.89
21520;BME280;10921;53.614;9.882;2023-07-31T01:42:57;100526.53;;;16.50;95.16
21520;BME280;10921;53.614;9.882;2023-07-31T01:45:23;100532.75;;;16.50;95.13
21520;BME280;10921;53.614;9.882;2023-07-31T01:47:50;100544.00;;;16.54;95.04
21520;BME280;10921;53.614;9.882;2023-07-31T01:50:16;100464.84;;;16.19;95.01
21520;BME280;10921;53.614;9.882;2023-07-31T01:52:43;100518.94;;;16.53;95.54
21520;BME280;10921;53.614;9.882;2023-07-31T01:55:09;100522.94;;;16.58;95.55
21520;BME280;10921;53.614;9.882;2023-07-31T01:57:36;100488.50;;;16.38;95.99
21520;BME280;10921;53.614;9.882;2023-07-31T02:00:04;100510.94;;;16.60;95.88
21520;BME280;10921;53.614;9.882;2023-07-31T02:02:31;100502.03;;;16.60;95.76
21520;BME280;10921;53.614;9.882;2023-07-31T02:04:58;100504.19;;;16.64;95.64
21520;BME280;10921;53.614;9.882;2023-07-31T02:07:24;100505.03;;;16.65;95.71
21520;BME280;10921;53.614;9.882;2023-07-31T02:09:51;100514.38;;;16.69;96.04
21520;BME280;10921;53.614;9.882;2023-07-31T02:12:17;100491.81;;;16.55;96.54
21520;BME280;10921;53.614;9.882;2023-07-31T02:14:44;100512.63;;;16.76;96.84
21520;BME280;10921;53.614;9.882;2023-07-31T02:17:11;100496.63;;;16.74;96.57
21520;BME280;10921;53.614;9.882;2023-07-31T02:19:38;100506.44;;;16.82;96.48
21520;BME280;10921;53.614;9.882;2023-07-31T02:22:04;100469.59;;;16.68;96.31
21520;BME280;10921;53.614;9.882;2023-07-31T02:24:31;100441.09;;;16.59;96.11
21520;BME280;10921;53.614;9.882;2023-07-31T02:26:58;100485.63;;;16.91;96.04
21520;BME280;10921;53.614;9.882;2023-07-31T02:29:24;100490.03;;;16.98;95.65
21520;BME280;10921;53.614;9.882;2023-07-31T02:31:51;100485.28;;;17.00;95.33
21520;BME280;10921;53.614;9.882;2023-07-31T02:34:18;100494.31;;;17.07;95.31
21520;BME280;10921;53.614;9.882;2023-07-31T02:36:44;100493.66;;;17.05;95.09
21520;BME280;10921;53.614;9.882;2023-07-31T02:39:10;100490.16;;;17.11;94.95
21520;BME280;10921;53.614;9.882;2023-07-31T02:41:37;100476.66;;;17.05;95.13
21520;BME280;10921;53.614;9.882;2023-07-31T02:44:04;100487.09;;;17.14;94.87
21520;BME280;10921;53.614;9.882;2023-07-31T02:46:30;100448.16;;;16.96;94.50
21520;BME280;10921;53.614;9.882;2023-07-31T02:48:57;100463.63;;;17.08;94.53
21520;BME280;10921;53.614;9.882;2023-07-31T02:51:24;100471.38;;;17.18;94.63
21520;BME280;10921;53.614;9.882;2023-07-31T02:53:50;100408.41;;;16.83;94.38
21520;BME280;10921;53.614;9.882;2023-07-31T02:56:17;100472.84;;;17.20;94.57
21520;BME280;10921;53.614;9.882;2023-07-31T02:58:44;100445.50;;;17.02;94.54
21520;BME280;10921;53.614;9.882;2023-07-31T03:01:11;100463.22;;;17.11;94.92
21520;BME280;10921;53.614;9.882;2023-07-31T03:03:37;100472.84;;;17.20;94.74
21520;BME280;10921;53.614;9.882;2023-07-31T03:06:04;100454.50;;;17.09;95.16
21520;BME280;10921;53.614;9.882;2023-07-31T03:08:30;100436.41;;;17.03;95.30
21520;BME280;10921;53.614;9.882;2023-07-31T03:10:57;100466.25;;;17.23;95.03
21520;BME280;10921;53.614;9.882;2023-07-31T03:13:24;100418.06;;;16.92;94.81
21520;BME280;10921;53.614;9.882;2023-07-31T03:15:50;100463.34;;;17.25;94.97
21520;BME280;10921;53.614;9.882;2023-07-31T03:18:17;100424.03;;;17.09;94.99
21520;BME280;10921;53.614;9.882;2023-07-31T03:20:43;100462.34;;;17.26;94.98
21520;BME280;10921;53.614;9.882;2023-07-31T03:23:10;100455.69;;;17.28;94.56
21520;BME280;10921;53.614;9.882;2023-07-31T03:25:54;100458.84;;;17.32;94.85
21520;BME280;10921;53.614;9.882;2023-07-31T03:28:21;100424.25;;;17.14;94.56
21520;BME280;10921;53.614;9.882;2023-07-31T03:30:47;100447.78;;;17.27;95.02
21520;BME280;10921;53.614;9.882;2023-07-31T03:33:14;100452.81;;;17.30;95.27
21520;BME280;10921;53.614;9.882;2023-07-31T03:35:40;100436.59;;;17.23;95.39
21520;BME280;10921;53.614;9.882;2023-07-31T03:38:07;100396.34;;;17.00;95.30
21520;BME280;10921;53.614;9.882;2023-07-31T03:40:37;100450.56;;;17.33;95.34
21520;BME280;10921;53.614;9.882;2023-07-31T03:43:05;100446.84;;;17.34;95.46
21520;BME280;10921;53.614;9.882;2023-07-31T03:45:31;100425.81;;;17.23;95.36
21520;BME280;10921;53.614;9.882;2023-07-31T03:47:58;100424.59;;;17.26;95.30
21520;BME280;10921;53.614;9.882;2023-07-31T03:50:24;100427.97;;;17.34;95.07
21520;BME280;10921;53.614;9.882;2023-07-31T03:52:52;100423.41;;;17.35;95.14
21520;BME280;10921;53.614;9.882;2023-07-31T03:55:19;100415.69;;;17.32;94.74
21520;BME280;10921;53.614;9.882;2023-07-31T03:57:45;100423.41;;;17.35;94.78
21520;BME280;10921;53.614;9.882;2023-07-31T04:00:12;100452.19;;;17.55;94.56
21520;BME280;10921;53.614;9.882;2023-07-31T04:02:39;100442.19;;;17.49;94.50
21520;BME280;10921;53.614;9.882;2023-07-31T04:05:06;100444.72;;;17.57;94.28
21520;BME280;10921;53.614;9.882;2023-07-31T04:07:33;100443.97;;;17.64;94.11
21520;BME280;10921;53.614;9.882;2023-07-31T04:09:59;100448.97;;;17.67;93.96
21520;BME280;10921;53.614;9.882;2023-07-31T04:12:26;100447.13;;;17.67;93.81
21520;BME280;10921;53.614;9.882;2023-07-31T04:14:53;100440.69;;;17.68;93.88
21520;BME280;10921;53.614;9.882;2023-07-31T04:17:19;100441.94;;;17.72;93.70
21520;BME280;10921;53.614;9.882;2023-07-31T04:19:46;100409.22;;;17.54;93.85
21520;BME280;10921;53.614;9.882;2023-07-31T04:22:12;100381.75;;;17.44;93.81
21520;BME280;10921;53.614;9.882;2023-07-31T04:24:39;100437.81;;;17.76;93.85
21520;BME280;10921;53.614;9.882;2023-07-31T04:27:06;100330.78;;;17.21;93.66
21520;BME280;10921;53.614;9.882;2023-07-31T04:29:32;100432.03;;;17.79;93.66
21520;BME280;10921;53.614;9.882;2023-07-31T04:31:59;100367.25;;;17.45;93.44
21520;BME280;10921;53.614;9.882;2023-07-31T04:34:25;100421.06;;;17.81;93.86
21520;BME280;10921;53.614;9.882;2023-07-31T04:36:52;100432.03;;;17.79;93.51
21520;BME280;10921;53.614;9.882;2023-07-31T04:39:19;100371.03;;;17.50;93.68
21520;BME280;10921;53.614;9.882;2023-07-31T04:41:45;100426.66;;;17.79;93.85
21520;BME280;10921;53.614;9.882;2023-07-31T04:44:12;100398.16;;;17.70;93.99
21520;BME280;10921;53.614;9.882;2023-07-31T04:46:39;100415.22;;;17.77;94.27
21520;BME280;10921;53.614;9.882;2023-07-31T04:49:06;100422.09;;;17.80;94.22
21520;BME280;10921;53.614;9.882;2023-07-31T04:51:32;100373.47;;;17.45;94.10
21520;BME280;10921;53.614;9.882;2023-07-31T04:53:59;100417.06;;;17.77;94.28
21520;BME280;10921;53.614;9.882;2023-07-31T04:56:25;100351.16;;;17.23;94.35
21520;BME280;10921;53.614;9.882;2023-07-31T04:58:52;100420.81;;;17.76;94.54
21520;BME280;10921;53.614;9.882;2023-07-31T05:01:18;100393.88;;;17.54;94.80
21520;BME280;10921;53.614;9.882;2023-07-31T05:03:45;100360.34;;;17.36;94.80
21520;BME280;10921;53.614;9.882;2023-07-31T05:06:12;100391.41;;;17.59;94.85
21520;BME280;10921;53.614;9.882;2023-07-31T05:08:39;100417.28;;;17.75;94.93
21520;BME280;10921;53.614;9.882;2023-07-31T05:11:06;100392.03;;;17.55;95.29
21520;BME280;10921;53.614;9.882;2023-07-31T05:13:33;100433.47;;;17.75;95.31
21520;BME280;10921;53.614;9.882;2023-07-31T05:15:59;100402.38;;;17.58;95.46
21520;BME280;10921;53.614;9.882;2023-07-31T05:18:28;100413.06;;;17.66;95.56
21520;BME280;10921;53.614;9.882;2023-07-31T05:20:55;100387.22;;;17.50;95.47
21520;BME280;10921;53.614;9.882;2023-07-31T05:23:22;100383.63;;;17.43;95.73
21520;BME280;10921;53.614;9.882;2023-07-31T05:25:48;100378.66;;;17.47;95.81
21520;BME280;10921;53.614;9.882;2023-07-31T05:28:15;100413.09;;;17.73;95.90
21520;BME280;10921;53.614;9.882;2023-07-31T05:30:41;100397.53;;;17.68;96.19
21520;BME280;10921;53.614;9.882;2023-07-31T05:33:08;100405.81;;;17.67;96.38
21520;BME280;10921;53.614;9.882;2023-07-31T05:35:36;100390.47;;;17.67;96.22
21520;BME280;10921;53.614;9.882;2023-07-31T05:38:02;100389.44;;;17.68;96.30
21520;BME280;10921;53.614;9.882;2023-07-31T05:40:32;100398.16;;;17.70;96.57
21520;BME280;10921;53.614;9.882;2023-07-31T05:42:58;100383.84;;;17.70;96.03
21520;BME280;10921;53.614;9.882;2023-07-31T05:45:25;100393.56;;;17.64;96.32
21520;BME280;10921;53.614;9.882;2023-07-31T05:47:52;100372.97;;;17.63;96.49
21520;BME280;10921;53.614;9.882;2023-07-31T05:50:18;100398.09;;;17.64;97.08
21520;BME280;10921;53.614;9.882;2023-07-31T05:52:45;100373.53;;;17.58;96.84
21520;BME280;10921;53.614;9.882;2023-07-31T05:55:11;100390.00;;;17.64;97.70
21520;BME280;10921;53.614;9.882;2023-07-31T05:57:38;100388.16;;;17.64;97.70
21520;BME280;10921;53.614;9.882;2023-07-31T06:00:05;100373.63;;;17.65;98.24
21520;BME280;10921;53.614;9.882;2023-07-31T06:02:32;100374.28;;;17.74;98.40
21520;BME280;10921;53.614;9.882;2023-07-31T06:05:04;100375.31;;;17.73;98.18
21520;BME280;10921;53.614;9.882;2023-07-31T06:07:32;100362.88;;;17.72;97.98
21520;BME280;10921;53.614;9.882;2023-07-31T06:09:58;100371.44;;;17.82;97.60
21520;BME280;10921;53.614;9.882;2023-07-31T06:12:32;100379.34;;;17.83;97.40
21520;BME280;10921;53.614;9.882;2023-07-31T06:14:59;100365.22;;;17.81;96.97
21520;BME280;10921;53.614;9.882;2023-07-31T06:17:26;100376.25;;;17.86;96.68
21520;BME280;10921;53.614;9.882;2023-07-31T06:19:52;100373.94;;;17.83;96.95
21520;BME280;10921;53.614;9.882;2023-07-31T06:22:19;100376.44;;;17.85;97.01
21520;BME280;10921;53.614;9.882;2023-07-31T06:24:46;100376.66;;;17.83;97.19
21520;BME280;10921;53.614;9.882;2023-07-31T06:27:13;100380.59;;;17.87;97.33
21520;BME280;10921;53.614;9.882;2023-07-31T06:29:39;100372.91;;;17.84;97.05
21520;BME280;10921;53.614;9.882;2023-07-31T06:32:06;100328.50;;;17.52;97.05
21520;BME280;10921;53.614;9.882;2023-07-31T06:34:33;100391.38;;;17.87;97.35
21520;BME280;10921;53.614;9.882;2023-07-31T06:37:03;100385.97;;;17.87;97.36
21520;BME280;10921;53.614;9.882;2023-07-31T06:39:29;100380.59;;;17.87;97.49
21520;BME280;10921;53.614;9.882;2023-07-31T06:41:56;100383.50;;;17.86;97.28
21520;BME280;10921;53.614;9.882;2023-07-31T06:44:22;100374.59;;;17.85;97.64
21520;BME280;10921;53.614;9.882;2023-07-31T06:46:49;100383.09;;;17.89;97.81
21520;BME280;10921;53.614;9.882;2023-07-31T06:49:15;100361.00;;;17.72;98.04
21520;BME280;10921;53.614;9.882;2023-07-31T06:51:42;100372.03;;;17.77;97.96
21520;BME280;10921;53.614;9.882;2023-07-31T06:54:10;100380.59;;;17.87;98.24
21520;BME280;10921;53.614;9.882;2023-07-31T06:56:37;100355.41;;;17.74;98.37
21520;BME280;10921;53.614;9.882;2023-07-31T06:59:06;100385.00;;;17.95;98.34
21520;BME280;10921;53.614;9.882;2023-07-31T07:01:33;100386.44;;;17.91;98.32
21520;BME280;10921;53.614;9.882;2023-07-31T07:04:00;100377.09;;;17.87;98.30
21520;BME280;10921;53.614;9.882;2023-07-31T07:06:26;100385.00;;;17.95;98.75
21520;BME280;10921;53.614;9.882;2023-07-31T07:08:53;100336.69;;;17.66;98.70
21520;BME280;10921;53.614;9.882;2023-07-31T07:11:19;100382.31;;;17.95;98.59
21520;BME280;10921;53.614;9.882;2023-07-31T07:13:46;100367.72;;;17.89;98.86
21520;BME280;10921;53.614;9.882;2023-07-31T07:16:13;100379.81;;;17.93;99.04
21520;BME280;10921;53.614;9.882;2023-07-31T07:18:39;100379.41;;;17.97;99.12
21520;BME280;10921;53.614;9.882;2023-07-31T07:21:19;100361.31;;;17.90;99.01
21520;BME280;10921;53.614;9.882;2023-07-31T07:23:46;100364.25;;;17.96;99.00
21520;BME280;10921;53.614;9.882;2023-07-31T07:26:12;100371.53;;;18.02;99.47
21520;BME280;10921;53.614;9.882;2023-07-31T07:28:39;100369.25;;;18.05;99.65
21520;BME280;10921;53.614;9.882;2023-07-31T07:31:05;100364.06;;;18.04;99.53
21520;BME280;10921;53.614;9.882;2023-07-31T07:33:32;100377.59;;;18.10;99.74
21520;BME280;10921;53.614;9.882;2023-07-31T07:36:02;100370.97;;;18.13;99.77
21520;BME280;10921;53.614;9.882;2023-07-31T07:38:28;100372.00;;;18.12;99.17
21520;BME280;10921;53.614;9.882;2023-07-31T07:40:55;100380.53;;;18.15;99.50
21520;BME280;10921;53.614;9.882;2023-07-31T07:43:21;100362.84;;;18.13;98.97
21520;BME280;10921;53.614;9.882;2023-07-31T07:45:48;100358.50;;;18.12;99.02
21520;BME280;10921;53.614;9.882;2023-07-31T07:48:14;100356.22;;;18.15;99.62
21520;BME280;10921;53.614;9.882;2023-07-31T07:50:43;100357.47;;;18.19;99.98
21520;BME280;10921;53.614;9.882;2023-07-31T07:53:09;100361.03;;;18.26;100.00
21520;BME280;10921;53.614;9.882;2023-07-31T07:55:36;100349.00;;;18.29;100.00
21520;BME280;10921;53.614;9.882;2023-07-31T07:58:03;100361.88;;;18.34;100.00
21520;BME280;10921;53.614;9.882;2023-07-31T08:00:29;100362.13;;;18.45;100.00
21520;BME280;10921;53.614;9.882;2023-07-31T08:02:56;100360.66;;;18.49;100.00
21520;BME280;10921;53.614;9.882;2023-07-31T08:05:24;100354.22;;;18.50;99.08
21520;BME280;10921;53.614;9.882;2023-07-31T08:07:51;100360.25;;;18.52;98.37
21520;BME280;10921;53.614;9.882;2023-07-31T08:10:18;100367.75;;;18.57;98.18
21520;BME280;10921;53.614;9.882;2023-07-31T08:12:44;100365.72;;;18.59;98.57
21520;BME280;10921;53.614;9.882;2023-07-31T08:15:11;100355.53;;;18.61;98.66
21520;BME280;10921;53.614;9.882;2023-07-31T08:17:37;100347.22;;;18.63;98.91
21520;BME280;10921;53.614;9.882;2023-07-31T08:20:04;100321.41;;;18.47;98.77
21520;BME280;10921;53.614;9.882;2023-07-31T08:22:31;100328.31;;;18.63;99.08
21520;BME280;10921;53.614;9.882;2023-07-31T08:24:58;100284.81;;;18.38;99.96
21520;BME280;10921;53.614;9.882;2023-07-31T08:27:25;100283.78;;;18.52;100.00
21520;BME280;10921;53.614;9.882;2023-07-31T08:29:52;100312.31;;;18.87;99.69
21520;BME280;10921;53.614;9.882;2023-07-31T08:32:19;100282.16;;;18.71;99.38
21520;BME280;10921;53.614;9.882;2023-07-31T08:34:45;100290.88;;;18.79;98.64
21520;BME280;10921;53.614;9.882;2023-07-31T08:37:12;100314.59;;;18.97;98.42
21520;BME280;10921;53.614;9.882;2023-07-31T08:39:38;100316.69;;;19.08;98.29
21520;BME280;10921;53.614;9.882;2023-07-31T08:42:09;100310.22;;;19.09;98.18
21520;BME280;10921;53.614;9.882;2023-07-31T08:44:36;100318.31;;;19.16;98.14
21520;BME280;10921;53.614;9.882;2023-07-31T08:47:04;100323.31;;;19.19;96.94
21520;BME280;10921;53.614;9.882;2023-07-31T08:49:31;100333.50;;;19.23;96.68
21520;BME280;10921;53.614;9.882;2023-07-31T08:51:58;100325.16;;;19.25;96.15
21520;BME280;10921;53.614;9.882;2023-07-31T08:54:24;100308.13;;;19.18;95.41
21520;BME280;10921;53.614;9.882;2023-07-31T08:56:56;100312.69;;;19.24;93.91
21520;BME280;10921;53.614;9.882;2023-07-31T08:59:24;100310.41;;;19.14;93.52
21520;BME280;10921;53.614;9.882;2023-07-31T09:01:53;100330.38;;;19.20;95.30
21520;BME280;10921;53.614;9.882;2023-07-31T09:04:23;100321.03;;;19.16;94.67
21520;BME280;10921;53.614;9.882;2023-07-31T09:06:51;100308.56;;;19.08;94.96
21520;BME280;10921;53.614;9.882;2023-07-31T09:09:21;100326.84;;;19.13;94.09
21520;BME280;10921;53.614;9.882;2023-07-31T09:11:49;100334.75;;;19.14;94.52
21520;BME280;10921;53.614;9.882;2023-07-31T09:14:17;100327.47;;;19.15;94.43
21520;BME280;10921;53.614;9.882;2023-07-31T09:16:57;100317.06;;;19.18;96.92
21520;BME280;10921;53.614;9.882;2023-07-31T09:19:35;100300.63;;;19.13;94.97
21520;BME280;10921;53.614;9.882;2023-07-31T09:22:05;100312.06;;;19.15;93.93
21520;BME280;10921;53.614;9.882;2023-07-31T09:24:34;100296.88;;;19.14;93.28
21520;BME280;10921;53.614;9.882;2023-07-31T09:27:01;100298.56;;;19.15;93.67
21520;BME280;10921;53.614;9.882;2023-07-31T09:29:28;100296.25;;;19.19;94.17
21520;BME280;10921;53.614;9.882;2023-07-31T09:31:56;100274.84;;;19.11;95.75
21520;BME280;10921;53.614;9.882;2023-07-31T09:34:38;100285.00;;;19.28;96.08
21520;BME280;10921;53.614;9.882;2023-07-31T09:37:05;100259.22;;;19.19;94.93
21520;BME280;10921;53.614;9.882;2023-07-31T09:39:32;100273.97;;;19.30;94.34
21520;BME280;10921;53.614;9.882;2023-07-31T09:42:10;100283.91;;;19.43;94.18
21520;BME280;10921;53.614;9.882;2023-07-31T09:44:38;100278.72;;;19.41;92.63
21520;BME280;10921;53.614;9.882;2023-07-31T09:47:06;100239.69;;;19.17;93.14
21520;BME280;10921;53.614;9.882;2023-07-31T09:49:33;100268.53;;;19.43;92.16
21520;BME280;10921;53.614;9.882;2023-07-31T09:52:00;100270.81;;;19.46;91.90
21520;BME280;10921;53.614;9.882;2023-07-31T09:54:26;100243.38;;;19.29;93.25
21520;BME280;10921;53.614;9.882;2023-07-31T09:56:54;100273.13;;;19.49;94.11
21520;BME280;10921;53.614;9.882;2023-07-31T09:59:21;100273.94;;;19.50;92.74
21520;BME280;10921;53.614;9.882;2023-07-31T10:01:50;100228.41;;;19.27;92.94
21520;BME280;10921;53.614;9.882;2023-07-31T10:04:18;100276.44;;;19.51;91.47
21520;BME280;10921;53.614;9.882;2023-07-31T10:06:53;100240.69;;;19.29;90.43
21520;BME280;10921;53.614;9.882;2023-07-31T10:09:21;100271.84;;;19.45;90.79
21520;BME280;10921;53.614;9.882;2023-07-31T10:11:59;100207.47;;;19.09;92.50
21520;BME280;10921;53.614;9.882;2023-07-31T10:14:27;100249.84;;;19.28;92.29
21520;BME280;10921;53.614;9.882;2023-07-31T10:16:57;100265.22;;;19.35;91.11
21520;BME280;10921;53.614;9.882;2023-07-31T10:19:23;100254.41;;;19.28;91.19
21520;BME280;10921;53.614;9.882;2023-07-31T10:21:51;100232.19;;;19.13;90.97
21520;BME280;10921;53.614;9.882;2023-07-31T10:24:17;100214.50;;;19.10;90.52
21520;BME280;10921;53.614;9.882;2023-07-31T10:26:45;100231.78;;;19.22;90.86
21520;BME280;10921;53.614;9.882;2023-07-31T10:29:15;100245.25;;;19.29;90.12
21520;BME280;10921;53.614;9.882;2023-07-31T10:31:42;100257.53;;;19.31;90.29
21520;BME280;10921;53.614;9.882;2023-07-31T10:34:09;100252.94;;;19.32;91.00
21520;BME280;10921;53.614;9.882;2023-07-31T10:36:35;100251.09;;;19.32;92.11
21520;BME280;10921;53.614;9.882;2023-07-31T10:39:04;100202.06;;;19.03;92.75
21520;BME280;10921;53.614;9.882;2023-07-31T10:41:30;100223.25;;;19.19;92.63
21520;BME280;10921;53.614;9.882;2023-07-31T10:43:59;100241.31;;;19.31;92.27
21520;BME280;10921;53.614;9.882;2023-07-31T10:46:27;100250.88;;;19.34;92.54
21520;BME280;10921;53.614;9.882;2023-07-31T10:49:02;100246.09;;;19.36;93.60
21520;BME280;10921;53.614;9.882;2023-07-31T10:51:33;100233.41;;;19.30;93.76
21520;BME280;10921;53.614;9.882;2023-07-31T10:54:15;100231.50;;;19.37;94.35
21520;BME280;10921;53.614;9.882;2023-07-31T10:56:45;100240.25;;;19.32;92.32
21520;BME280;10921;53.614;9.882;2023-07-31T10:59:13;100215.75;;;19.21;91.14
21520;BME280;10921;53.614;9.882;2023-07-31T11:01:53;100228.00;;;19.30;92.57
21520;BME280;10921;53.614;9.882;2023-07-31T11:04:26;100231.53;;;19.30;90.88
21520;BME280;10921;53.614;9.882;2023-07-31T11:06:58;100228.00;;;19.30;92.62
21520;BME280;10921;53.614;9.882;2023-07-31T11:09:34;100219.47;;;19.26;92.55
21520;BME280;10921;53.614;9.882;2023-07-31T11:12:00;100222.00;;;19.21;91.25
21520;BME280;10921;53.614;9.882;2023-07-31T11:14:27;100220.13;;;19.15;90.79
21520;BME280;10921;53.614;9.882;2023-07-31T11:16:53;100216.38;;;19.10;91.63
21520;BME280;10921;53.614;9.882;2023-07-31T11:19:24;100222.66;;;19.04;91.56
21520;BME280;10921;53.614;9.882;2023-07-31T11:21:54;100215.38;;;18.97;91.45
21520;BME280;10921;53.614;9.882;2023-07-31T11:24:22;100158.47;;;18.53;91.85
21520;BME280;10921;53.614;9.882;2023-07-31T11:26:52;100207.09;;;18.79;93.00
21520;BME280;10921;53.614;9.882;2023-07-31T11:29:20;100224.38;;;18.78;93.34
21520;BME280;10921;53.614;9.882;2023-07-31T11:31:47;100166.38;;;18.48;93.64
21520;BME280;10921;53.614;9.882;2023-07-31T11:34:15;100213.97;;;18.69;92.88
21520;BME280;10921;53.614;9.882;2023-07-31T11:36:53;100206.09;;;18.74;93.89
21520;BME280;10921;53.614;9.882;2023-07-31T11:39:20;100189.84;;;18.54;92.66
21520;BME280;10921;53.614;9.882;2023-07-31T11:41:47;100196.50;;;18.51;93.10
21520;BME280;10921;53.614;9.882;2023-07-31T11:44:14;100201.69;;;18.53;93.16
21520;BME280;10921;53.614;9.882;2023-07-31T11:46:52;100197.97;;;18.47;93.73
21520;BME280;10921;53.614;9.882;2023-07-31T11:49:19;100200.06;;;18.45;94.16
21520;BME280;10921;53.614;9.882;2023-07-31T11:51:46;100206.69;;;18.49;96.74
21520;BME280;10921;53.614;9.882;2023-07-31T11:54:12;100207.75;;;18.48;95.11
21520;BME280;10921;53.614;9.882;2023-07-31T11:56:40;100204.59;;;18.51;95.29
21520;BME280;10921;53.614;9.882;2023-07-31T11:59:07;100203.16;;;18.55;94.33
21520;BME280;10921;53.614;9.882;2023-07-31T12:01:35;100199.63;;;18.55;94.63
21520;BME280;10921;53.614;9.882;2023-07-31T12:04:01;100196.09;;;18.48;94.32
21520;BME280;10921;53.614;9.882;2023-07-31T12:06:35;100191.31;;;18.37;94.35
21520;BME280;10921;53.614;9.882;2023-07-31T12:09:04;100200.66;;;18.41;94.12
21520;BME280;10921;53.614;9.882;2023-07-31T12:11:42;100164.91;;;18.19;96.24
21520;BME280;10921;53.614;9.882;2023-07-31T12:14:19;100184.88;;;18.38;96.41
21520;BME280;10921;53.614;9.882;2023-07-31T12:16:46;100190.91;;;18.46;93.82
21520;BME280;10921;53.614;9.882;2023-07-31T12:19:13;100193.19;;;18.43;94.99
21520;BME280;10921;53.614;9.882;2023-07-31T12:21:40;100179.03;;;18.34;95.22
21520;BME280;10921;53.614;9.882;2023-07-31T12:24:06;100190.91;;;18.46;96.27
21520;BME280;10921;53.614;9.882;2023-07-31T12:26:36;100125.06;;;18.14;97.08
21520;BME280;10921;53.614;9.882;2023-07-31T12:29:06;100156.81;;;18.45;96.72
21520;BME280;10921;53.614;9.882;2023-07-31T12:31:34;100134.41;;;18.32;94.73
21520;BME280;10921;53.614;9.882;2023-07-31T12:34:00;100177.59;;;18.58;94.94
21520;BME280;10921;53.614;9.882;2023-07-31T12:36:29;100163.91;;;18.59;96.57
21520;BME280;10921;53.614;9.882;2023-07-31T12:38:58;100159.13;;;18.61;96.80
21520;BME280;10921;53.614;9.882;2023-07-31T12:41:26;100155.38;;;18.63;98.93
21520;BME280;10921;53.614;9.882;2023-07-31T12:43:52;100152.88;;;18.74;98.22
21520;BME280;10921;53.614;9.882;2023-07-31T12:46:19;100149.28;;;18.80;98.35
21520;BME280;10921;53.614;9.882;2023-07-31T12:48:46;100150.13;;;18.87;99.83
21520;BME280;10921;53.614;9.882;2023-07-31T12:51:12;100146.59;;;18.93;99.68
21520;BME280;10921;53.614;9.882;2023-07-31T12:53:39;100142.16;;;19.06;99.51
21520;BME280;10921;53.614;9.882;2023-07-31T12:56:05;100133.84;;;19.07;98.21
21520;BME280;10921;53.614;9.882;2023-07-31T12:58:32;100117.78;;;19.12;99.15